Time;durP1;ratioP1;P1;durP2;ratioP2;P2;SDS_P1;SDS_P2;PMS_P1;PMS_P2;Temp;Humidity;BMP_temperature;BMP_pressure;BME280_temperature;BME280_humidity;BME280_pressure;Samples;Min_cycle;Max_cycle;Signal;HPM_P1;HPM_P2
2023/06/03 00:01:13;;;;;;;;;;;21.20;39.00;;;;;;5084375;28;20376;-55
2023/06/03 00:03:44;;;;;;;;;;;21.20;39.20;;;;;;5070392;28;20266;-55
2023/06/03 00:06:09;;;;;;;;;;;21.10;38.80;;;;;;5076068;28;19913;-55
2023/06/03 00:08:35;;;;;;;;;;;21.10;39.30;;;;;;5068229;28;19913;-55
2023/06/03 00:11:00;;;;;;;;;;;21.10;39.50;;;;;;5067481;28;19913;-55
2023/06/03 00:13:26;;;;;;;;;;;21.10;38.90;;;;;;5069285;28;19919;-55
2023/06/03 00:15:51;;;;;;;;;;;21.10;38.90;;;;;;5069113;28;19909;-55
2023/06/03 00:18:16;;;;;;;;;;;21.10;39.80;;;;;;5084193;28;20002;-55
2023/06/03 00:20:47;;;;;;;;;;;21.10;38.80;;;;;;5072585;28;20365;-55
2023/06/03 00:23:16;;;;;;;;;;;21.10;38.80;;;;;;5107272;28;19924;-55
2023/06/03 00:25:41;;;;;;;;;;;21.00;39.00;;;;;;5087565;28;19932;-55
2023/06/03 00:28:07;;;;;;;;;;;21.10;38.60;;;;;;5057249;28;20358;-55
2023/06/03 00:30:33;;;;;;;;;;;21.10;38.90;;;;;;5059432;28;20361;-55
2023/06/03 00:32:58;;;;;;;;;;;21.10;39.10;;;;;;5052485;28;19955;-55
2023/06/03 00:35:24;;;;;;;;;;;21.00;39.10;;;;;;5068342;28;19913;-55
2023/06/03 00:37:49;;;;;;;;;;;21.00;38.80;;;;;;5061866;28;19919;-54
2023/06/03 00:40:15;;;;;;;;;;;21.00;38.90;;;;;;5064340;28;19960;-55
2023/06/03 00:42:40;;;;;;;;;;;21.00;38.80;;;;;;5061807;28;19920;-56
2023/06/03 00:45:06;;;;;;;;;;;21.00;38.90;;;;;;5085469;28;19916;-55
2023/06/03 00:47:31;;;;;;;;;;;21.00;38.80;;;;;;5089236;28;19909;-55
2023/06/03 00:49:57;;;;;;;;;;;21.00;39.20;;;;;;5087281;28;20334;-55
2023/06/03 00:52:22;;;;;;;;;;;21.00;39.10;;;;;;5089732;28;19912;-55
2023/06/03 00:54:49;;;;;;;;;;;21.00;39.10;;;;;;5096399;28;19995;-55
2023/06/03 00:57:14;;;;;;;;;;;21.00;39.00;;;;;;5055234;28;20261;-55
2023/06/03 00:59:40;;;;;;;;;;;21.00;39.10;;;;;;5073201;28;19912;-55
2023/06/03 01:02:06;;;;;;;;;;;20.90;39.00;;;;;;5073536;28;19913;-54
2023/06/03 01:04:31;;;;;;;;;;;20.90;38.90;;;;;;5074550;28;20387;-55
2023/06/03 01:07:10;;;;;;;;;;;20.90;39.10;;;;;;5071733;28;20277;-55
2023/06/03 01:09:38;;;;;;;;;;;20.90;38.90;;;;;;5090751;28;19962;-55
2023/06/03 01:12:09;;;;;;;;;;;20.90;39.10;;;;;;5086427;28;19924;-55
2023/06/03 01:14:39;;;;;;;;;;;20.90;39.00;;;;;;5074847;28;20016;-55
2023/06/03 01:17:09;;;;;;;;;;;20.90;39.00;;;;;;5107156;28;19938;-55
2023/06/03 01:19:48;;;;;;;;;;;20.90;38.90;;;;;;5074607;28;19958;-55
2023/06/03 01:22:14;;;;;;;;;;;20.90;39.00;;;;;;5074800;28;20065;-55
2023/06/03 01:24:40;;;;;;;;;;;20.90;38.70;;;;;;5075532;28;19970;-55
2023/06/03 01:27:06;;;;;;;;;;;20.90;38.70;;;;;;5058490;28;19924;-55
2023/06/03 01:29:31;;;;;;;;;;;20.90;38.50;;;;;;5060308;28;19919;-55
2023/06/03 01:31:57;;;;;;;;;;;20.90;38.40;;;;;;5072896;28;19967;-55
2023/06/03 01:34:22;;;;;;;;;;;21.00;38.50;;;;;;5070385;28;19920;-55
2023/06/03 01:36:48;;;;;;;;;;;20.90;38.40;;;;;;5068521;28;19912;-55
2023/06/03 01:39:14;;;;;;;;;;;21.00;38.20;;;;;;5057202;28;19920;-55
2023/06/03 01:41:42;;;;;;;;;;;21.00;38.20;;;;;;5074075;28;19952;-55
2023/06/03 01:44:07;;;;;;;;;;;21.00;38.30;;;;;;5072961;28;20295;-54
2023/06/03 01:46:33;;;;;;;;;;;21.00;38.20;;;;;;5072917;28;19909;-54
2023/06/03 01:48:58;;;;;;;;;;;21.00;38.20;;;;;;5074274;28;20357;-54
2023/06/03 01:51:24;;;;;;;;;;;20.90;38.10;;;;;;5070900;28;20448;-54
2023/06/03 01:53:50;;;;;;;;;;;20.90;38.00;;;;;;5052943;28;19916;-55
2023/06/03 01:56:15;;;;;;;;;;;21.00;38.20;;;;;;5053555;28;19924;-55
2023/06/03 01:58:41;;;;;;;;;;;20.90;38.10;;;;;;5057774;28;19958;-55
2023/06/03 02:01:06;;;;;;;;;;;20.90;38.20;;;;;;5073657;28;20004;-55
2023/06/03 02:03:32;;;;;;;;;;;20.90;38.20;;;;;;5073297;28;19920;-55
2023/06/03 02:05:57;;;;;;;;;;;20.90;38.30;;;;;;5073876;28;19924;-55
2023/06/03 02:08:23;;;;;;;;;;;20.90;38.30;;;;;;5070962;28;19920;-55
2023/06/03 02:10:48;;;;;;;;;;;21.00;38.40;;;;;;5071147;28;19909;-55
2023/06/03 02:13:13;;;;;;;;;;;20.90;38.20;;;;;;5053838;28;19909;-55
2023/06/03 02:15:41;;;;;;;;;;;20.90;38.30;;;;;;5061955;28;19999;-55
2023/06/03 02:18:06;;;;;;;;;;;20.90;38.30;;;;;;5092653;28;19918;-55
2023/06/03 02:20:32;;;;;;;;;;;20.90;38.30;;;;;;5080262;28;20268;-55
2023/06/03 02:23:01;;;;;;;;;;;20.90;38.40;;;;;;5073490;28;20018;-55
2023/06/03 02:25:27;;;;;;;;;;;20.90;38.40;;;;;;5065436;28;19916;-55
2023/06/03 02:27:54;;;;;;;;;;;20.90;38.40;;;;;;5060578;28;20003;-55
2023/06/03 02:30:20;;;;;;;;;;;20.80;38.40;;;;;;5062458;28;20423;-55
2023/06/03 02:32:45;;;;;;;;;;;20.80;38.60;;;;;;5069275;28;20004;-55
2023/06/03 02:35:11;;;;;;;;;;;20.80;38.50;;;;;;5053382;28;19995;-55
2023/06/03 02:37:36;;;;;;;;;;;20.80;39.20;;;;;;5062992;28;19916;-55
2023/06/03 02:40:02;;;;;;;;;;;20.80;38.60;;;;;;5054846;28;20353;-55
2023/06/03 02:42:27;;;;;;;;;;;20.80;38.70;;;;;;5071816;28;19921;-55
2023/06/03 02:44:53;;;;;;;;;;;20.80;38.70;;;;;;5070020;28;19912;-55
2023/06/03 02:47:18;;;;;;;;;;;20.70;38.70;;;;;;5071794;28;19928;-55
2023/06/03 02:49:45;;;;;;;;;;;20.80;38.90;;;;;;5071611;28;19920;-55
2023/06/03 02:52:10;;;;;;;;;;;20.70;38.90;;;;;;5057147;28;19913;-55
2023/06/03 02:54:36;;;;;;;;;;;20.70;38.90;;;;;;5057643;28;19927;-55
2023/06/03 02:57:01;;;;;;;;;;;20.70;38.90;;;;;;5071984;28;19924;-55
2023/06/03 02:59:26;;;;;;;;;;;20.70;38.90;;;;;;5070857;28;20001;-55
2023/06/03 03:01:52;;;;;;;;;;;20.70;39.00;;;;;;5068367;28;19916;-55
2023/06/03 03:04:17;;;;;;;;;;;20.70;39.10;;;;;;5055347;28;20432;-55
2023/06/03 03:06:43;;;;;;;;;;;20.70;39.10;;;;;;5068012;28;19931;-55
2023/06/03 03:09:09;;;;;;;;;;;20.70;39.20;;;;;;5051966;28;19944;-55
2023/06/03 03:11:35;;;;;;;;;;;20.70;39.20;;;;;;5052798;28;19912;-55
2023/06/03 03:14:02;;;;;;;;;;;20.70;39.20;;;;;;5071284;28;19912;-55
2023/06/03 03:16:28;;;;;;;;;;;20.60;39.10;;;;;;5067432;28;19916;-55
2023/06/03 03:18:53;;;;;;;;;;;20.70;39.20;;;;;;5058478;28;19920;-55
2023/06/03 03:21:18;;;;;;;;;;;20.60;39.20;;;;;;5054407;28;19917;-55
2023/06/03 03:23:44;;;;;;;;;;;20.60;39.20;;;;;;5055867;28;19947;-55
2023/06/03 03:26:11;;;;;;;;;;;20.60;39.20;;;;;;5062501;28;19958;-55
2023/06/03 03:28:37;;;;;;;;;;;20.60;39.30;;;;;;5051745;28;20003;-55
2023/06/03 03:31:04;;;;;;;;;;;20.60;39.30;;;;;;5053358;28;19938;-55
2023/06/03 03:33:30;;;;;;;;;;;20.60;39.30;;;;;;5070097;28;20292;-55
2023/06/03 03:35:57;;;;;;;;;;;20.70;39.30;;;;;;5059767;28;19913;-55
2023/06/03 03:38:23;;;;;;;;;;;20.60;39.30;;;;;;5053770;28;19958;-55
2023/06/03 03:40:49;;;;;;;;;;;20.60;39.30;;;;;;5052637;28;19999;-55
2023/06/03 03:43:15;;;;;;;;;;;20.60;39.40;;;;;;5063741;28;19929;-55
2023/06/03 03:45:40;;;;;;;;;;;20.60;39.40;;;;;;5059544;28;19920;-55
2023/06/03 03:48:07;;;;;;;;;;;20.60;39.40;;;;;;5062376;28;20384;-54
2023/06/03 03:50:42;;;;;;;;;;;20.60;39.30;;;;;;5071149;28;19923;-55
2023/06/03 03:53:09;;;;;;;;;;;20.60;39.40;;;;;;5060608;28;19912;-55
2023/06/03 03:55:42;;;;;;;;;;;20.60;39.40;;;;;;5064421;28;19948;-55
2023/06/03 03:58:31;;;;;;;;;;;20.60;39.40;;;;;;5073148;28;19993;-55
2023/06/03 04:01:00;;;;;;;;;;;20.60;39.40;;;;;;5048669;28;19924;-55
2023/06/03 04:03:26;;;;;;;;;;;20.60;39.40;;;;;;5101654;28;20019;-55
2023/06/03 04:05:52;;;;;;;;;;;20.60;39.40;;;;;;5065661;28;20058;-55
2023/06/03 04:08:40;;;;;;;;;;;20.60;39.40;;;;;;5068780;28;19912;-55
2023/06/03 04:11:11;;;;;;;;;;;20.60;39.40;;;;;;5064140;28;19970;-55
2023/06/03 04:13:38;;;;;;;;;;;20.60;39.40;;;;;;5062636;28;20003;-55
2023/06/03 04:16:07;;;;;;;;;;;20.60;39.40;;;;;;5060378;28;19924;-55
2023/06/03 04:18:33;;;;;;;;;;;20.60;39.40;;;;;;5061073;28;19917;-55
2023/06/03 04:20:59;;;;;;;;;;;20.60;40.00;;;;;;5069528;28;20331;-56
2023/06/03 04:23:25;;;;;;;;;;;20.60;39.40;;;;;;5056039;28;19924;-54
2023/06/03 04:25:53;;;;;;;;;;;20.60;39.40;;;;;;5067733;28;19912;-55
2023/06/03 04:28:18;;;;;;;;;;;20.50;39.40;;;;;;5070488;28;19992;-55
2023/06/03 04:30:44;;;;;;;;;;;20.50;39.40;;;;;;5067359;28;20050;-56
2023/06/03 04:33:10;;;;;;;;;;;20.50;39.40;;;;;;5063379;28;19949;-55
2023/06/03 04:35:35;;;;;;;;;;;20.50;39.40;;;;;;5056687;28;19913;-55
2023/06/03 04:38:01;;;;;;;;;;;20.50;39.30;;;;;;5060274;28;19920;-55
2023/06/03 04:40:29;;;;;;;;;;;20.50;39.40;;;;;;5067347;28;20818;-55
2023/06/03 04:42:54;;;;;;;;;;;20.50;39.40;;;;;;5070568;28;19921;-55
2023/06/03 04:45:23;;;;;;;;;;;20.50;39.30;;;;;;5064664;28;19917;-55
2023/06/03 04:47:58;;;;;;;;;;;20.50;39.40;;;;;;5072349;28;20394;-55
2023/06/03 04:50:24;;;;;;;;;;;20.60;39.30;;;;;;5072237;28;19919;-55
2023/06/03 04:52:51;;;;;;;;;;;20.50;39.30;;;;;;5062155;28;19976;-55
2023/06/03 04:55:16;;;;;;;;;;;20.60;39.30;;;;;;5062713;28;20483;-55
2023/06/03 04:57:47;;;;;;;;;;;20.50;39.30;;;;;;5072788;28;20066;-55
2023/06/03 05:00:16;;;;;;;;;;;20.50;39.30;;;;;;5073654;28;19947;-55
2023/06/03 05:02:44;;;;;;;;;;;20.50;39.20;;;;;;5071653;28;19920;-55
2023/06/03 05:05:10;;;;;;;;;;;20.50;39.20;;;;;;5070568;28;20430;-55
2023/06/03 05:07:35;;;;;;;;;;;20.50;39.80;;;;;;5062638;28;19916;-55
2023/06/03 05:10:01;;;;;;;;;;;20.50;39.20;;;;;;5066910;28;19920;-54
2023/06/03 05:12:26;;;;;;;;;;;20.50;39.20;;;;;;5073702;28;19923;-55
2023/06/03 05:14:52;;;;;;;;;;;20.50;39.20;;;;;;5060330;28;19916;-55
2023/06/03 05:17:17;;;;;;;;;;;20.50;39.20;;;;;;5071876;28;19935;-56
2023/06/03 05:19:43;;;;;;;;;;;20.50;39.20;;;;;;5068063;28;19999;-55
2023/06/03 05:22:08;;;;;;;;;;;20.50;39.20;;;;;;5067647;28;20034;-55
2023/06/03 05:24:33;;;;;;;;;;;20.50;39.20;;;;;;5060006;28;19970;-55
2023/06/03 05:26:59;;;;;;;;;;;20.50;39.10;;;;;;5060513;28;19920;-55
2023/06/03 05:29:24;;;;;;;;;;;20.50;39.20;;;;;;5058191;28;20435;-54
2023/06/03 05:31:50;;;;;;;;;;;20.50;39.10;;;;;;5067539;28;19952;-54
2023/06/03 05:34:15;;;;;;;;;;;20.50;39.10;;;;;;5093965;28;19976;-54
2023/06/03 05:36:41;;;;;;;;;;;20.50;39.10;;;;;;5072463;28;20437;-54
2023/06/03 05:39:06;;;;;;;;;;;20.50;39.10;;;;;;5073733;28;20398;-55
2023/06/03 05:41:33;;;;;;;;;;;20.50;39.00;;;;;;5069983;28;20347;-54
2023/06/03 05:43:58;;;;;;;;;;;20.50;38.90;;;;;;5100050;27;20004;-55
2023/06/03 05:46:24;;;;;;;;;;;20.50;38.80;;;;;;5092173;28;20007;-54
2023/06/03 05:48:49;;;;;;;;;;;20.50;39.00;;;;;;5053881;28;19913;-54
2023/06/03 05:51:15;;;;;;;;;;;20.50;39.00;;;;;;5065878;28;19919;-54
2023/06/03 05:53:43;;;;;;;;;;;20.50;39.00;;;;;;5055367;28;20396;-54
2023/06/03 05:56:09;;;;;;;;;;;20.50;39.10;;;;;;5064840;28;19974;-55
2023/06/03 05:58:35;;;;;;;;;;;20.50;39.10;;;;;;5069987;28;19916;-54
2023/06/03 06:01:00;;;;;;;;;;;20.50;39.00;;;;;;5063603;28;20498;-55
2023/06/03 06:03:26;;;;;;;;;;;20.50;38.80;;;;;;5063965;28;19925;-55
2023/06/03 06:05:51;;;;;;;;;;;20.50;38.90;;;;;;5056511;28;19917;-55
2023/06/03 06:08:17;;;;;;;;;;;20.50;39.00;;;;;;5099345;28;19996;-54
2023/06/03 06:10:42;;;;;;;;;;;20.40;38.90;;;;;;5069323;28;20403;-55
2023/06/03 06:13:08;;;;;;;;;;;20.40;38.90;;;;;;5059455;28;20276;-55
2023/06/03 06:15:33;;;;;;;;;;;20.30;38.00;;;;;;5066504;28;19913;-55
2023/06/03 06:17:59;;;;;;;;;;;20.40;38.30;;;;;;5060184;28;19913;-55
2023/06/03 06:20:24;;;;;;;;;;;20.40;38.40;;;;;;5097442;28;19952;-54
2023/06/03 06:22:50;;;;;;;;;;;20.40;38.30;;;;;;5054933;28;19951;-55
2023/06/03 06:25:15;;;;;;;;;;;20.30;38.10;;;;;;5047045;28;19912;-55
2023/06/03 06:27:41;;;;;;;;;;;20.30;38.00;;;;;;5058507;28;20283;-55
2023/06/03 06:30:07;;;;;;;;;;;20.40;38.20;;;;;;5053868;28;20016;-55
2023/06/03 06:32:35;;;;;;;;;;;20.30;38.20;;;;;;5065776;28;19916;-54
2023/06/03 06:35:01;;;;;;;;;;;20.20;37.70;;;;;;5096359;28;19919;-55
2023/06/03 06:37:26;;;;;;;;;;;20.20;38.00;;;;;;5067391;28;20281;-55
2023/06/03 06:39:52;;;;;;;;;;;20.20;37.40;;;;;;5056604;28;19916;-55
2023/06/03 06:42:23;;;;;;;;;;;20.20;37.60;;;;;;5057313;28;19920;-54
2023/06/03 06:44:49;;;;;;;;;;;20.20;37.30;;;;;;5067927;28;19920;-54
2023/06/03 06:47:16;;;;;;;;;;;20.20;37.10;;;;;;5058080;28;20353;-54
2023/06/03 06:49:42;;;;;;;;;;;20.20;37.20;;;;;;5059274;28;19962;-55
2023/06/03 06:52:10;;;;;;;;;;;20.20;37.20;;;;;;5060686;28;19920;-55
2023/06/03 06:54:35;;;;;;;;;;;20.20;36.80;;;;;;5051883;28;19923;-55
2023/06/03 06:57:01;;;;;;;;;;;20.30;37.00;;;;;;5058934;28;19913;-54
2023/06/03 06:59:26;;;;;;;;;;;20.30;37.00;;;;;;5062176;28;19920;-54
2023/06/03 07:01:52;;;;;;;;;;;20.30;37.00;;;;;;5062969;28;19917;-54
2023/06/03 07:04:17;;;;;;;;;;;20.30;37.40;;;;;;5063286;28;19921;-54
2023/06/03 07:06:43;;;;;;;;;;;20.30;36.70;;;;;;5069848;28;19912;-54
2023/06/03 07:09:08;;;;;;;;;;;20.30;36.70;;;;;;5055289;28;19935;-55
2023/06/03 07:11:35;;;;;;;;;;;20.30;36.90;;;;;;5070471;28;19935;-54
2023/06/03 07:14:01;;;;;;;;;;;20.30;36.80;;;;;;5071340;28;19915;-54
2023/06/03 07:16:26;;;;;;;;;;;20.40;36.80;;;;;;5059149;28;19916;-55
2023/06/03 07:18:53;;;;;;;;;;;20.30;36.80;;;;;;5052162;28;19917;-54
2023/06/03 07:21:23;;;;;;;;;;;20.30;36.90;;;;;;5058322;28;19916;-54
2023/06/03 07:23:49;;;;;;;;;;;20.30;36.70;;;;;;5055710;28;20373;-54
2023/06/03 07:26:15;;;;;;;;;;;20.30;36.90;;;;;;5058279;28;19916;-54
2023/06/03 07:28:40;;;;;;;;;;;20.30;36.70;;;;;;5070048;28;20237;-55
2023/06/03 07:31:06;;;;;;;;;;;20.30;36.70;;;;;;5062872;28;19923;-55
2023/06/03 07:33:50;;;;;;;;;;;20.40;36.90;;;;;;5066354;28;19920;-55
2023/06/03 07:36:16;;;;;;;;;;;20.40;36.70;;;;;;5057685;28;19921;-54
2023/06/03 07:39:11;;;;;;;;;;;20.40;36.70;;;;;;5058837;28;19975;-55
2023/06/03 07:41:40;;;;;;;;;;;20.40;36.90;;;;;;5038997;28;19917;-55
2023/06/03 07:44:15;;;;;;;;;;;20.40;36.80;;;;;;5059445;28;19921;-55
2023/06/03 07:46:41;;;;;;;;;;;20.40;36.50;;;;;;5053748;28;19919;-55
2023/06/03 07:49:08;;;;;;;;;;;20.40;36.60;;;;;;5065691;28;19917;-55
2023/06/03 07:51:33;;;;;;;;;;;20.40;36.40;;;;;;5065309;28;19955;-55
2023/06/03 07:53:59;;;;;;;;;;;20.30;36.10;;;;;;5062562;28;20024;-55
2023/06/03 07:56:25;;;;;;;;;;;20.30;36.30;;;;;;5061934;28;19917;-55
2023/06/03 07:58:50;;;;;;;;;;;20.40;36.30;;;;;;5064145;28;19920;-55
2023/06/03 08:01:16;;;;;;;;;;;20.30;36.30;;;;;;5069680;28;19919;-55
2023/06/03 08:03:41;;;;;;;;;;;20.40;36.30;;;;;;5086014;28;19919;-55
2023/06/03 08:06:08;;;;;;;;;;;20.40;36.10;;;;;;5059579;28;19920;-55
2023/06/03 08:08:33;;;;;;;;;;;20.40;36.10;;;;;;5059381;28;19916;-55
2023/06/03 08:11:01;;;;;;;;;;;20.40;36.10;;;;;;5063075;28;19913;-55
2023/06/03 08:13:27;;;;;;;;;;;20.40;36.10;;;;;;5061837;28;19921;-54
2023/06/03 08:15:52;;;;;;;;;;;20.50;36.40;;;;;;5056001;28;20360;-55
2023/06/03 08:18:30;;;;;;;;;;;20.50;36.40;;;;;;5063785;28;19985;-55
2023/06/03 08:20:55;;;;;;;;;;;20.50;36.40;;;;;;5070410;28;19912;-55
2023/06/03 08:23:20;;;;;;;;;;;20.60;36.60;;;;;;5093763;28;20379;-55
2023/06/03 08:25:46;;;;;;;;;;;20.50;36.70;;;;;;5070844;28;20395;-55
2023/06/03 08:28:11;;;;;;;;;;;20.60;36.70;;;;;;5068716;28;19916;-55
2023/06/03 08:30:37;;;;;;;;;;;20.60;36.80;;;;;;5081256;28;19927;-55
2023/06/03 08:33:02;;;;;;;;;;;20.60;36.70;;;;;;5066210;28;19963;-55
2023/06/03 08:35:28;;;;;;;;;;;20.70;36.90;;;;;;5070172;28;19919;-55
2023/06/03 08:37:53;;;;;;;;;;;20.70;37.00;;;;;;5059904;28;19995;-54
2023/06/03 08:40:21;;;;;;;;;;;20.70;36.90;;;;;;5070510;28;19912;-55
2023/06/03 08:42:47;;;;;;;;;;;20.70;37.20;;;;;;5070947;28;19980;-55
2023/06/03 08:45:14;;;;;;;;;;;20.70;36.80;;;;;;5107985;27;19913;-55
2023/06/03 08:47:48;;;;;;;;;;;20.70;36.90;;;;;;5064891;28;19912;-55
2023/06/03 08:50:15;;;;;;;;;;;20.70;36.40;;;;;;5075174;28;20308;-55
2023/06/03 08:52:41;;;;;;;;;;;20.70;36.60;;;;;;5075142;28;19996;-55
2023/06/03 08:55:06;;;;;;;;;;;20.70;36.70;;;;;;5070991;28;20022;-56
2023/06/03 08:57:33;;;;;;;;;;;20.80;36.50;;;;;;5062213;28;19917;-55
2023/06/03 08:59:59;;;;;;;;;;;20.80;36.10;;;;;;5053612;28;20333;-55
2023/06/03 09:02:24;;;;;;;;;;;20.90;36.70;;;;;;5061212;28;19948;-54
2023/06/03 09:04:50;;;;;;;;;;;20.90;37.00;;;;;;5105320;28;19912;-54
2023/06/03 09:07:15;;;;;;;;;;;20.90;37.00;;;;;;5069340;28;19912;-54
2023/06/03 09:09:41;;;;;;;;;;;21.00;36.90;;;;;;5060264;28;20020;-53
2023/06/03 09:12:07;;;;;;;;;;;21.00;37.20;;;;;;5066401;28;19920;-55
2023/06/03 09:14:32;;;;;;;;;;;21.10;37.00;;;;;;5073918;28;19916;-54
2023/06/03 09:16:58;;;;;;;;;;;21.00;36.80;;;;;;5072626;28;20265;-55
2023/06/03 09:19:25;;;;;;;;;;;21.10;36.60;;;;;;5092199;28;20019;-54
2023/06/03 09:21:51;;;;;;;;;;;21.10;36.90;;;;;;5057706;28;19966;-54
2023/06/03 09:24:16;;;;;;;;;;;21.10;36.50;;;;;;5056823;28;19925;-54
2023/06/03 09:26:41;;;;;;;;;;;21.20;36.60;;;;;;5063302;28;20007;-54
2023/06/03 09:29:07;;;;;;;;;;;21.20;36.50;;;;;;5068234;28;19920;-54
2023/06/03 09:31:32;;;;;;;;;;;21.20;36.20;;;;;;5061257;28;19913;-54
2023/06/03 09:33:58;;;;;;;;;;;21.20;36.30;;;;;;5062045;28;19919;-54
2023/06/03 09:36:24;;;;;;;;;;;21.20;36.30;;;;;;5073408;28;19932;-54
2023/06/03 09:38:54;;;;;;;;;;;21.20;36.20;;;;;;5069883;28;19913;-56
2023/06/03 09:41:20;;;;;;;;;;;21.30;36.10;;;;;;5059863;28;19913;-54
2023/06/03 09:43:55;;;;;;;;;;;21.30;36.30;;;;;;5072949;28;19927;-54
2023/06/03 09:46:21;;;;;;;;;;;21.30;36.30;;;;;;5059615;28;19913;-54
2023/06/03 09:48:46;;;;;;;;;;;21.30;36.40;;;;;;5060332;28;19922;-54
2023/06/03 09:51:12;;;;;;;;;;;21.40;36.40;;;;;;5057518;28;19916;-54
2023/06/03 09:53:37;;;;;;;;;;;21.40;36.30;;;;;;5069910;28;19956;-54
2023/06/03 09:56:22;;;;;;;;;;;21.40;36.30;;;;;;5066193;28;19924;-54
2023/06/03 09:58:49;;;;;;;;;;;21.50;36.20;;;;;;5067618;28;19971;-54
2023/06/03 10:01:18;;;;;;;;;;;21.50;36.50;;;;;;5057750;28;19913;-54
2023/06/03 10:03:56;;;;;;;;;;;21.40;36.20;;;;;;5054150;28;20369;-54
2023/06/03 10:06:21;;;;;;;;;;;21.40;36.00;;;;;;5058997;28;19987;-54
2023/06/03 10:08:47;;;;;;;;;;;21.50;35.90;;;;;;5069773;28;20019;-54
2023/06/03 10:11:12;;;;;;;;;;;21.50;36.20;;;;;;5069979;28;20377;-54
2023/06/03 10:13:38;;;;;;;;;;;21.50;36.10;;;;;;5072868;28;20369;-54
2023/06/03 10:16:04;;;;;;;;;;;21.50;36.20;;;;;;5064753;28;20341;-54
2023/06/03 10:18:37;;;;;;;;;;;21.50;35.90;;;;;;5098750;28;19913;-54
2023/06/03 10:21:05;;;;;;;;;;;21.50;35.80;;;;;;5064047;28;20404;-54
2023/06/03 10:23:31;;;;;;;;;;;21.50;35.70;;;;;;5058115;28;19916;-54
2023/06/03 10:25:56;;;;;;;;;;;21.50;35.70;;;;;;5062813;28;19921;-54
2023/06/03 10:28:22;;;;;;;;;;;21.50;35.40;;;;;;5052743;28;20020;-54
2023/06/03 10:30:47;;;;;;;;;;;21.60;35.40;;;;;;5063341;28;19927;-54
2023/06/03 10:33:13;;;;;;;;;;;21.60;35.40;;;;;;5067565;28;19959;-54
2023/06/03 10:35:38;;;;;;;;;;;21.60;35.00;;;;;;5059597;28;19966;-54
2023/06/03 10:38:05;;;;;;;;;;;21.60;34.90;;;;;;5072554;28;19958;-54
2023/06/03 10:40:31;;;;;;;;;;;21.70;34.90;;;;;;5065188;28;20451;-54
2023/06/03 10:42:56;;;;;;;;;;;21.70;34.90;;;;;;5052103;28;19929;-54
2023/06/03 10:45:22;;;;;;;;;;;21.80;34.90;;;;;;5071612;28;19917;-54
2023/06/03 10:47:48;;;;;;;;;;;21.80;34.90;;;;;;5061909;28;19970;-54
2023/06/03 10:50:18;;;;;;;;;;;21.80;34.90;;;;;;5065596;28;19958;-55
2023/06/03 10:52:56;;;;;;;;;;;21.90;34.70;;;;;;5089652;28;19917;-54
2023/06/03 10:55:28;;;;;;;;;;;21.90;34.50;;;;;;5060764;28;20266;-54
2023/06/03 10:58:08;;;;;;;;;;;22.00;34.30;;;;;;5054975;28;20003;-54
2023/06/03 11:00:53;;;;;;;;;;;22.00;34.40;;;;;;5053306;28;19912;-54
2023/06/03 11:03:21;;;;;;;;;;;21.90;34.00;;;;;;5062234;28;19916;-53
2023/06/03 11:05:46;;;;;;;;;;;21.80;34.10;;;;;;5066150;28;19916;-54
2023/06/03 11:08:12;;;;;;;;;;;22.00;34.00;;;;;;5102776;28;20025;-53
2023/06/03 11:10:41;;;;;;;;;;;22.00;34.20;;;;;;5069904;28;19917;-54
2023/06/03 11:13:07;;;;;;;;;;;22.10;33.60;;;;;;5072963;28;20650;-54
2023/06/03 11:15:51;;;;;;;;;;;22.10;33.90;;;;;;5052384;28;19912;-53
2023/06/03 11:18:17;;;;;;;;;;;22.00;34.70;;;;;;5061163;28;20455;-53
2023/06/03 11:20:42;;;;;;;;;;;22.00;34.10;;;;;;5062908;28;19913;-54
2023/06/03 11:23:08;;;;;;;;;;;22.10;33.90;;;;;;5067141;28;19967;-54
2023/06/03 11:25:33;;;;;;;;;;;22.10;33.90;;;;;;5053580;28;20011;-54
2023/06/03 11:28:35;;;;;;;;;;;22.00;33.80;;;;;;5068049;28;19913;-54
2023/06/03 11:31:01;;;;;;;;;;;22.10;33.60;;;;;;5036221;28;19917;-54
2023/06/03 11:33:26;;;;;;;;;;;22.10;33.30;;;;;;5066518;28;19916;-54
2023/06/03 11:35:52;;;;;;;;;;;22.10;33.70;;;;;;5071614;28;19918;-54
2023/06/03 11:38:17;;;;;;;;;;;22.20;33.70;;;;;;5069562;28;19920;-54
2023/06/03 11:40:46;;;;;;;;;;;22.20;33.50;;;;;;5051814;28;19916;-54
2023/06/03 11:43:12;;;;;;;;;;;22.20;33.20;;;;;;5067723;28;19932;-54
2023/06/03 11:45:38;;;;;;;;;;;22.20;33.10;;;;;;5058036;28;19917;-54
2023/06/03 11:48:05;;;;;;;;;;;22.20;33.60;;;;;;5069152;28;19954;-54
2023/06/03 11:50:31;;;;;;;;;;;22.20;33.70;;;;;;5070484;28;19908;-54
2023/06/03 11:52:57;;;;;;;;;;;22.20;33.50;;;;;;5071147;28;20277;-54
2023/06/03 11:55:26;;;;;;;;;;;22.20;33.40;;;;;;5057144;28;19924;-54
2023/06/03 11:57:51;;;;;;;;;;;22.30;33.60;;;;;;5103031;28;19913;-54
2023/06/03 12:00:17;;;;;;;;;;;22.30;33.50;;;;;;5069340;28;20408;-54
2023/06/03 12:02:46;;;;;;;;;;;22.30;33.30;;;;;;5069413;28;19916;-54
2023/06/03 12:05:20;;;;;;;;;;;22.30;33.30;;;;;;5066303;28;20007;-54
2023/06/03 12:07:52;;;;;;;;;;;22.20;32.90;;;;;;5071561;28;19913;-54
2023/06/03 12:10:17;;;;;;;;;;;22.20;33.30;;;;;;5074321;28;19927;-54
2023/06/03 12:12:56;;;;;;;;;;;22.20;32.70;;;;;;5070410;28;20331;-54
2023/06/03 12:15:21;;;;;;;;;;;22.30;32.70;;;;;;5062970;28;19944;-54
2023/06/03 12:17:47;;;;;;;;;;;22.20;32.60;;;;;;5062014;28;20396;-54
2023/06/03 12:20:25;;;;;;;;;;;22.30;32.90;;;;;;5055479;28;19917;-54
2023/06/03 12:23:04;;;;;;;;;;;22.30;33.20;;;;;;5065809;28;19924;-54
2023/06/03 12:25:30;;;;;;;;;;;22.30;33.20;;;;;;5058668;28;19920;-54
2023/06/03 12:27:56;;;;;;;;;;;22.20;33.70;;;;;;5053027;28;19913;-54
2023/06/03 12:30:29;;;;;;;;;;;22.20;33.20;;;;;;5051042;28;20288;-54
2023/06/03 12:32:57;;;;;;;;;;;22.20;33.10;;;;;;5056759;28;19912;-54
2023/06/03 12:35:26;;;;;;;;;;;22.20;33.20;;;;;;5060003;28;19939;-54
2023/06/03 12:38:04;;;;;;;;;;;22.20;33.50;;;;;;5060325;28;19920;-54
2023/06/03 12:40:30;;;;;;;;;;;22.20;33.40;;;;;;5067654;28;19917;-54
2023/06/03 12:42:56;;;;;;;;;;;22.30;33.50;;;;;;5052251;28;20012;-53
2023/06/03 12:45:22;;;;;;;;;;;22.30;33.40;;;;;;5054073;28;19913;-53
2023/06/03 12:47:47;;;;;;;;;;;22.30;33.20;;;;;;5051172;28;19940;-53
2023/06/03 12:50:13;;;;;;;;;;;22.40;32.60;;;;;;5052094;28;20300;-53
2023/06/03 12:52:38;;;;;;;;;;;22.50;32.40;;;;;;5054129;28;19912;-53
2023/06/03 12:55:06;;;;;;;;;;;22.50;32.40;;;;;;5054856;28;19913;-54
2023/06/03 12:57:39;;;;;;;;;;;22.50;32.80;;;;;;5075439;28;19912;-55
2023/06/03 13:00:20;;;;;;;;;;;22.50;32.40;;;;;;5056738;28;19917;-54
2023/06/03 13:02:46;;;;;;;;;;;22.50;32.60;;;;;;5066710;28;19923;-54
2023/06/03 13:05:12;;;;;;;;;;;22.60;32.40;;;;;;5069970;28;19921;-54
2023/06/03 13:07:39;;;;;;;;;;;22.60;32.40;;;;;;5060971;28;19921;-54
2023/06/03 13:10:05;;;;;;;;;;;22.60;32.30;;;;;;5104585;28;19916;-54
2023/06/03 13:12:30;;;;;;;;;;;22.60;32.60;;;;;;5073163;28;19952;-53
2023/06/03 13:14:56;;;;;;;;;;;22.50;32.40;;;;;;5072382;28;19951;-54
2023/06/03 13:17:22;;;;;;;;;;;22.60;32.50;;;;;;5074694;28;19974;-54
2023/06/03 13:19:47;;;;;;;;;;;22.60;32.00;;;;;;5054680;28;19921;-54
2023/06/03 13:22:16;;;;;;;;;;;22.60;32.00;;;;;;5061981;28;19937;-54
2023/06/03 13:24:41;;;;;;;;;;;22.50;32.30;;;;;;5069989;28;19923;-53
2023/06/03 13:27:07;;;;;;;;;;;22.50;31.90;;;;;;5061924;28;19990;-54
2023/06/03 13:29:33;;;;;;;;;;;22.50;32.70;;;;;;5065626;28;19947;-54
2023/06/03 13:31:58;;;;;;;;;;;22.50;32.90;;;;;;5081195;28;19935;-54
2023/06/03 13:34:24;;;;;;;;;;;22.60;33.00;;;;;;5103909;28;19918;-52
2023/06/03 13:36:49;;;;;;;;;;;22.70;32.50;;;;;;5073417;28;19986;-53
2023/06/03 13:39:17;;;;;;;;;;;22.70;32.30;;;;;;5060656;28;20266;-53
2023/06/03 13:41:43;;;;;;;;;;;22.80;32.50;;;;;;5104083;28;19917;-53
2023/06/03 13:44:09;;;;;;;;;;;22.80;32.30;;;;;;5074046;28;20369;-54
2023/06/03 13:46:34;;;;;;;;;;;22.80;32.10;;;;;;5073118;28;19915;-53
2023/06/03 13:49:00;;;;;;;;;;;22.70;32.60;;;;;;5074445;28;19948;-53
2023/06/03 13:51:25;;;;;;;;;;;22.70;32.50;;;;;;5072831;28;19912;-53
2023/06/03 13:53:50;;;;;;;;;;;22.60;32.50;;;;;;5074247;28;20003;-53
2023/06/03 13:56:16;;;;;;;;;;;22.60;32.60;;;;;;5067491;28;19913;-53
2023/06/03 13:58:41;;;;;;;;;;;22.70;32.60;;;;;;5072435;28;19930;-53
2023/06/03 14:01:07;;;;;;;;;;;22.70;32.80;;;;;;5035915;28;20405;-54
2023/06/03 14:03:32;;;;;;;;;;;22.70;33.00;;;;;;5072384;28;19920;-53
2023/06/03 14:05:58;;;;;;;;;;;22.70;32.50;;;;;;5106518;28;19913;-54
2023/06/03 14:08:24;;;;;;;;;;;22.80;32.50;;;;;;5073407;28;19908;-54
2023/06/03 14:10:50;;;;;;;;;;;22.80;32.80;;;;;;5053356;28;19975;-54
2023/06/03 14:13:15;;;;;;;;;;;22.80;32.60;;;;;;5086344;28;20380;-53
2023/06/03 14:15:42;;;;;;;;;;;22.90;32.40;;;;;;5053604;28;20015;-54